sensor_id;sensor_type;location;lat;lon;timestamp;P1;durP1;ratioP1;P2;durP2;ratioP2
40787;SDS011;26497;52.494;7.546;2023-06-14T00:02:23;1999.90;;;999.90;;
40787;SDS011;26497;52.494;7.546;2023-06-14T00:04:50;1999.90;;;999.90;;
40787;SDS011;26497;52.494;7.546;2023-06-14T00:07:20;1999.90;;;999.90;;
40787;SDS011;26497;52.494;7.546;2023-06-14T00:10:02;1999.90;;;999.90;;
40787;SDS011;26497;52.494;7.546;2023-06-14T00:12:30;1999.90;;;999.90;;
40787;SDS011;26497;52.494;7.546;2023-06-14T00:14:57;1999.90;;;999.90;;
40787;SDS011;26497;52.494;7.546;2023-06-14T00:17:26;1999.90;;;999.90;;
40787;SDS011;26497;52.494;7.546;2023-06-14T00:19:55;1999.90;;;999.90;;
40787;SDS011;26497;52.494;7.546;2023-06-14T00:22:24;1999.90;;;999.90;;
40787;SDS011;26497;52.494;7.546;2023-06-14T00:24:54;1999.90;;;999.90;;
40787;SDS011;26497;52.494;7.546;2023-06-14T00:27:21;1999.90;;;999.90;;
40787;SDS011;26497;52.494;7.546;2023-06-14T00:29:48;1999.90;;;999.90;;
40787;SDS011;26497;52.494;7.546;2023-06-14T00:32:15;1999.90;;;999.90;;
40787;SDS011;26497;52.494;7.546;2023-06-14T00:34:42;1999.90;;;999.90;;
40787;SDS011;26497;52.494;7.546;2023-06-14T00:37:09;1999.90;;;999.90;;
40787;SDS011;26497;52.494;7.546;2023-06-14T00:39:38;1999.90;;;999.90;;
40787;SDS011;26497;52.494;7.546;2023-06-14T00:42:05;1999.90;;;999.90;;
40787;SDS011;26497;52.494;7.546;2023-06-14T00:44:33;1999.90;;;999.90;;
40787;SDS011;26497;52.494;7.546;2023-06-14T00:47:00;1999.90;;;999.90;;
40787;SDS011;26497;52.494;7.546;2023-06-14T00:49:28;1999.90;;;999.90;;
40787;SDS011;26497;52.494;7.546;2023-06-14T00:51:56;1999.90;;;999.90;;
40787;SDS011;26497;52.494;7.546;2023-06-14T00:54:23;1999.90;;;999.90;;
40787;SDS011;26497;52.494;7.546;2023-06-14T00:56:51;1999.90;;;999.90;;
40787;SDS011;26497;52.494;7.546;2023-06-14T00:59:18;1999.90;;;999.90;;
40787;SDS011;26497;52.494;7.546;2023-06-14T01:01:45;1999.90;;;999.90;;
40787;SDS011;26497;52.494;7.546;2023-06-14T01:04:13;1999.90;;;999.90;;
40787;SDS011;26497;52.494;7.546;2023-06-14T01:06:41;1999.90;;;999.90;;
40787;SDS011;26497;52.494;7.546;2023-06-14T01:09:22;1999.90;;;999.90;;
40787;SDS011;26497;52.494;7.546;2023-06-14T01:12:04;1999.90;;;999.90;;
40787;SDS011;26497;52.494;7.546;2023-06-14T01:14:40;1999.90;;;999.90;;
40787;SDS011;26497;52.494;7.546;2023-06-14T01:17:08;1999.90;;;999.90;;
40787;SDS011;26497;52.494;7.546;2023-06-14T01:19:40;1999.90;;;999.90;;
40787;SDS011;26497;52.494;7.546;2023-06-14T01:22:09;1999.90;;;999.90;;
40787;SDS011;26497;52.494;7.546;2023-06-14T01:24:38;1999.90;;;999.90;;
40787;SDS011;26497;52.494;7.546;2023-06-14T01:27:10;1999.90;;;999.90;;
40787;SDS011;26497;52.494;7.546;2023-06-14T01:29:38;1999.90;;;999.90;;
40787;SDS011;26497;52.494;7.546;2023-06-14T01:32:10;1999.90;;;999.90;;
40787;SDS011;26497;52.494;7.546;2023-06-14T01:34:38;1999.90;;;999.90;;
40787;SDS011;26497;52.494;7.546;2023-06-14T01:37:05;1999.90;;;999.90;;
40787;SDS011;26497;52.494;7.546;2023-06-14T01:39:34;1999.90;;;999.90;;
40787;SDS011;26497;52.494;7.546;2023-06-14T01:42:03;1999.90;;;999.90;;
40787;SDS011;26497;52.494;7.546;2023-06-14T01:44:32;1999.90;;;999.90;;
40787;SDS011;26497;52.494;7.546;2023-06-14T01:47:00;1999.90;;;999.90;;
40787;SDS011;26497;52.494;7.546;2023-06-14T01:49:27;1999.90;;;999.90;;
40787;SDS011;26497;52.494;7.546;2023-06-14T01:51:54;1999.90;;;999.90;;
40787;SDS011;26497;52.494;7.546;2023-06-14T01:54:21;1999.90;;;999.90;;
40787;SDS011;26497;52.494;7.546;2023-06-14T01:56:50;1999.90;;;999.90;;
40787;SDS011;26497;52.494;7.546;2023-06-14T01:59:19;1999.90;;;999.90;;
40787;SDS011;26497;52.494;7.546;2023-06-14T02:01:46;1999.90;;;999.90;;
40787;SDS011;26497;52.494;7.546;2023-06-14T02:04:13;1999.90;;;999.90;;
40787;SDS011;26497;52.494;7.546;2023-06-14T02:06:40;1999.90;;;999.90;;
40787;SDS011;26497;52.494;7.546;2023-06-14T02:09:07;1999.90;;;999.90;;
40787;SDS011;26497;52.494;7.546;2023-06-14T02:11:34;1999.90;;;999.90;;
40787;SDS011;26497;52.494;7.546;2023-06-14T02:14:02;1999.90;;;999.90;;
40787;SDS011;26497;52.494;7.546;2023-06-14T02:16:30;1999.90;;;999.90;;
40787;SDS011;26497;52.494;7.546;2023-06-14T02:18:57;1999.90;;;999.90;;
40787;SDS011;26497;52.494;7.546;2023-06-14T02:21:25;1999.90;;;999.90;;
40787;SDS011;26497;52.494;7.546;2023-06-14T02:23:52;1999.90;;;999.90;;
40787;SDS011;26497;52.494;7.546;2023-06-14T02:26:19;1999.90;;;999.90;;
40787;SDS011;26497;52.494;7.546;2023-06-14T02:28:47;1999.90;;;999.90;;
40787;SDS011;26497;52.494;7.546;2023-06-14T02:31:14;1999.90;;;999.90;;
40787;SDS011;26497;52.494;7.546;2023-06-14T02:33:43;1999.90;;;999.90;;
40787;SDS011;26497;52.494;7.546;2023-06-14T02:36:10;1999.90;;;999.90;;
40787;SDS011;26497;52.494;7.546;2023-06-14T02:38:37;1999.90;;;999.90;;
40787;SDS011;26497;52.494;7.546;2023-06-14T02:41:04;1999.90;;;999.90;;
40787;SDS011;26497;52.494;7.546;2023-06-14T02:43:32;1999.90;;;999.90;;
40787;SDS011;26497;52.494;7.546;2023-06-14T02:45:59;1999.90;;;999.90;;
40787;SDS011;26497;52.494;7.546;2023-06-14T02:48:27;1999.90;;;999.90;;
40787;SDS011;26497;52.494;7.546;2023-06-14T02:50:55;1999.90;;;999.90;;
40787;SDS011;26497;52.494;7.546;2023-06-14T02:53:23;1999.90;;;999.90;;
40787;SDS011;26497;52.494;7.546;2023-06-14T02:55:50;1999.90;;;999.90;;
40787;SDS011;26497;52.494;7.546;2023-06-14T02:58:17;1999.90;;;999.90;;
40787;SDS011;26497;52.494;7.546;2023-06-14T03:00:45;1999.90;;;999.90;;
40787;SDS011;26497;52.494;7.546;2023-06-14T03:03:12;1999.90;;;999.90;;
40787;SDS011;26497;52.494;7.546;2023-06-14T03:05:41;1999.90;;;999.90;;
40787;SDS011;26497;52.494;7.546;2023-06-14T03:08:13;1999.90;;;999.90;;
40787;SDS011;26497;52.494;7.546;2023-06-14T03:10:44;1999.90;;;999.90;;
40787;SDS011;26497;52.494;7.546;2023-06-14T03:13:12;1999.90;;;999.90;;
40787;SDS011;26497;52.494;7.546;2023-06-14T03:15:39;1999.90;;;999.90;;
40787;SDS011;26497;52.494;7.546;2023-06-14T03:18:07;1999.90;;;999.90;;
40787;SDS011;26497;52.494;7.546;2023-06-14T03:20:34;1999.90;;;999.90;;
40787;SDS011;26497;52.494;7.546;2023-06-14T03:23:02;1999.90;;;999.90;;
40787;SDS011;26497;52.494;7.546;2023-06-14T03:25:32;1999.90;;;999.90;;
40787;SDS011;26497;52.494;7.546;2023-06-14T03:28:00;1999.90;;;999.90;;
40787;SDS011;26497;52.494;7.546;2023-06-14T03:30:29;1999.90;;;999.90;;
40787;SDS011;26497;52.494;7.546;2023-06-14T03:32:57;1999.90;;;999.90;;
40787;SDS011;26497;52.494;7.546;2023-06-14T03:35:26;1999.90;;;999.90;;
40787;SDS011;26497;52.494;7.546;2023-06-14T03:37:54;1999.90;;;999.90;;
40787;SDS011;26497;52.494;7.546;2023-06-14T03:40:21;1999.90;;;999.90;;
40787;SDS011;26497;52.494;7.546;2023-06-14T03:42:53;1999.90;;;999.90;;
40787;SDS011;26497;52.494;7.546;2023-06-14T03:45:20;1999.90;;;999.90;;
40787;SDS011;26497;52.494;7.546;2023-06-14T03:47:48;1999.90;;;999.90;;
40787;SDS011;26497;52.494;7.546;2023-06-14T03:50:15;1999.90;;;999.90;;
40787;SDS011;26497;52.494;7.546;2023-06-14T03:52:43;1999.90;;;999.90;;
40787;SDS011;26497;52.494;7.546;2023-06-14T03:55:11;1999.90;;;999.90;;
40787;SDS011;26497;52.494;7.546;2023-06-14T03:57:39;1999.90;;;999.90;;
40787;SDS011;26497;52.494;7.546;2023-06-14T04:00:08;1999.90;;;999.90;;
40787;SDS011;26497;52.494;7.546;2023-06-14T04:02:37;1999.90;;;999.90;;
40787;SDS011;26497;52.494;7.546;2023-06-14T04:05:05;1999.90;;;999.90;;
40787;SDS011;26497;52.494;7.546;2023-06-14T04:07:34;1999.90;;;999.90;;
40787;SDS011;26497;52.494;7.546;2023-06-14T04:10:05;1999.90;;;999.90;;
40787;SDS011;26497;52.494;7.546;2023-06-14T04:12:33;1999.90;;;999.90;;
40787;SDS011;26497;52.494;7.546;2023-06-14T04:15:01;1999.90;;;999.90;;
40787;SDS011;26497;52.494;7.546;2023-06-14T04:17:32;1999.90;;;999.90;;
40787;SDS011;26497;52.494;7.546;2023-06-14T04:19:59;1999.90;;;999.90;;
40787;SDS011;26497;52.494;7.546;2023-06-14T04:22:27;1999.90;;;999.90;;
40787;SDS011;26497;52.494;7.546;2023-06-14T04:24:55;1999.90;;;999.90;;
40787;SDS011;26497;52.494;7.546;2023-06-14T04:27:22;60.30;;;56.88;;
40787;SDS011;26497;52.494;7.546;2023-06-14T04:29:51;543.55;;;291.13;;
40787;SDS011;26497;52.494;7.546;2023-06-14T04:32:22;1999.90;;;999.90;;
40787;SDS011;26497;52.494;7.546;2023-06-14T04:34:53;1999.90;;;999.90;;
40787;SDS011;26497;52.494;7.546;2023-06-14T04:37:21;1999.90;;;999.90;;
40787;SDS011;26497;52.494;7.546;2023-06-14T04:39:48;1999.90;;;999.90;;
40787;SDS011;26497;52.494;7.546;2023-06-14T04:42:16;1999.90;;;999.90;;
40787;SDS011;26497;52.494;7.546;2023-06-14T04:44:45;1999.90;;;999.90;;
40787;SDS011;26497;52.494;7.546;2023-06-14T04:47:14;1999.90;;;999.90;;
40787;SDS011;26497;52.494;7.546;2023-06-14T04:49:41;1999.90;;;999.90;;
40787;SDS011;26497;52.494;7.546;2023-06-14T04:52:11;1999.90;;;999.90;;
40787;SDS011;26497;52.494;7.546;2023-06-14T04:54:38;1999.90;;;999.90;;
40787;SDS011;26497;52.494;7.546;2023-06-14T04:57:07;1999.90;;;999.90;;
40787;SDS011;26497;52.494;7.546;2023-06-14T04:59:38;1999.90;;;999.90;;
40787;SDS011;26497;52.494;7.546;2023-06-14T05:02:09;1999.90;;;999.90;;
40787;SDS011;26497;52.494;7.546;2023-06-14T05:04:36;1999.90;;;999.90;;
40787;SDS011;26497;52.494;7.546;2023-06-14T05:07:05;1999.90;;;999.90;;
40787;SDS011;26497;52.494;7.546;2023-06-14T05:09:34;1999.90;;;999.90;;
40787;SDS011;26497;52.494;7.546;2023-06-14T05:12:01;1999.90;;;999.90;;
40787;SDS011;26497;52.494;7.546;2023-06-14T05:14:29;1999.90;;;999.90;;
40787;SDS011;26497;52.494;7.546;2023-06-14T05:16:57;1999.90;;;999.90;;
40787;SDS011;26497;52.494;7.546;2023-06-14T05:19:24;1999.90;;;999.90;;
40787;SDS011;26497;52.494;7.546;2023-06-14T05:21:51;1999.90;;;999.90;;
40787;SDS011;26497;52.494;7.546;2023-06-14T05:24:19;1999.90;;;999.90;;
40787;SDS011;26497;52.494;7.546;2023-06-14T05:26:47;1999.90;;;999.90;;
40787;SDS011;26497;52.494;7.546;2023-06-14T05:29:15;1999.90;;;999.90;;
40787;SDS011;26497;52.494;7.546;2023-06-14T05:31:42;1999.90;;;999.90;;
40787;SDS011;26497;52.494;7.546;2023-06-14T05:34:10;1999.90;;;999.90;;
40787;SDS011;26497;52.494;7.546;2023-06-14T05:36:38;1999.90;;;999.90;;
40787;SDS011;26497;52.494;7.546;2023-06-14T05:39:05;1999.90;;;999.90;;
40787;SDS011;26497;52.494;7.546;2023-06-14T05:41:34;1999.90;;;999.90;;
40787;SDS011;26497;52.494;7.546;2023-06-14T05:44:03;1999.90;;;999.90;;
40787;SDS011;26497;52.494;7.546;2023-06-14T05:46:30;1999.90;;;999.90;;
40787;SDS011;26497;52.494;7.546;2023-06-14T05:48:57;1999.90;;;999.90;;
40787;SDS011;26497;52.494;7.546;2023-06-14T05:51:24;1999.90;;;999.90;;
40787;SDS011;26497;52.494;7.546;2023-06-14T05:53:52;1999.90;;;999.90;;
40787;SDS011;26497;52.494;7.546;2023-06-14T05:56:19;1999.90;;;999.90;;
40787;SDS011;26497;52.494;7.546;2023-06-14T05:58:46;1999.90;;;999.90;;
40787;SDS011;26497;52.494;7.546;2023-06-14T06:01:15;1999.90;;;999.90;;
40787;SDS011;26497;52.494;7.546;2023-06-14T06:03:42;1999.90;;;999.90;;
40787;SDS011;26497;52.494;7.546;2023-06-14T06:06:11;1999.90;;;999.90;;
40787;SDS011;26497;52.494;7.546;2023-06-14T06:08:38;1999.90;;;999.90;;
40787;SDS011;26497;52.494;7.546;2023-06-14T06:11:05;1999.90;;;999.90;;
40787;SDS011;26497;52.494;7.546;2023-06-14T06:13:32;1999.90;;;999.90;;
40787;SDS011;26497;52.494;7.546;2023-06-14T06:16:00;1999.90;;;999.90;;
40787;SDS011;26497;52.494;7.546;2023-06-14T06:18:29;1999.90;;;999.90;;
40787;SDS011;26497;52.494;7.546;2023-06-14T06:20:56;1999.90;;;999.90;;
40787;SDS011;26497;52.494;7.546;2023-06-14T06:23:23;1999.90;;;999.90;;
40787;SDS011;26497;52.494;7.546;2023-06-14T06:25:51;1999.90;;;999.90;;
40787;SDS011;26497;52.494;7.546;2023-06-14T06:28:18;1999.90;;;999.90;;
40787;SDS011;26497;52.494;7.546;2023-06-14T06:30:45;1999.90;;;999.90;;
40787;SDS011;26497;52.494;7.546;2023-06-14T06:33:13;1999.90;;;999.90;;
40787;SDS011;26497;52.494;7.546;2023-06-14T06:35:41;1999.90;;;999.90;;
40787;SDS011;26497;52.494;7.546;2023-06-14T06:38:09;1999.90;;;999.90;;
40787;SDS011;26497;52.494;7.546;2023-06-14T06:40:36;1999.90;;;999.90;;
40787;SDS011;26497;52.494;7.546;2023-06-14T06:43:03;1999.90;;;999.90;;
40787;SDS011;26497;52.494;7.546;2023-06-14T06:45:30;1999.90;;;999.90;;
40787;SDS011;26497;52.494;7.546;2023-06-14T06:47:58;1999.90;;;999.90;;
40787;SDS011;26497;52.494;7.546;2023-06-14T06:50:25;1999.90;;;999.90;;
40787;SDS011;26497;52.494;7.546;2023-06-14T06:52:53;1999.90;;;999.90;;
40787;SDS011;26497;52.494;7.546;2023-06-14T06:55:21;1999.90;;;999.90;;
40787;SDS011;26497;52.494;7.546;2023-06-14T06:57:48;1999.90;;;999.90;;
40787;SDS011;26497;52.494;7.546;2023-06-14T07:00:17;1999.90;;;999.90;;
40787;SDS011;26497;52.494;7.546;2023-06-14T07:02:45;1999.90;;;999.90;;
40787;SDS011;26497;52.494;7.546;2023-06-14T07:05:13;1999.90;;;999.90;;
40787;SDS011;26497;52.494;7.546;2023-06-14T07:07:40;1999.90;;;999.90;;
40787;SDS011;26497;52.494;7.546;2023-06-14T07:10:08;1999.90;;;999.90;;
40787;SDS011;26497;52.494;7.546;2023-06-14T07:12:36;1999.90;;;999.90;;
40787;SDS011;26497;52.494;7.546;2023-06-14T07:15:05;1999.90;;;999.90;;
40787;SDS011;26497;52.494;7.546;2023-06-14T07:17:33;1999.90;;;999.90;;
40787;SDS011;26497;52.494;7.546;2023-06-14T07:20:01;1999.90;;;999.90;;
40787;SDS011;26497;52.494;7.546;2023-06-14T07:22:38;1999.90;;;999.90;;
40787;SDS011;26497;52.494;7.546;2023-06-14T07:25:09;1999.90;;;999.90;;
40787;SDS011;26497;52.494;7.546;2023-06-14T07:27:39;1999.90;;;999.90;;
40787;SDS011;26497;52.494;7.546;2023-06-14T07:30:07;1999.90;;;999.90;;
40787;SDS011;26497;52.494;7.546;2023-06-14T07:32:35;1999.90;;;999.90;;
40787;SDS011;26497;52.494;7.546;2023-06-14T07:35:03;1999.90;;;999.90;;
40787;SDS011;26497;52.494;7.546;2023-06-14T07:37:31;1999.90;;;999.90;;
40787;SDS011;26497;52.494;7.546;2023-06-14T07:39:58;1999.90;;;999.90;;
40787;SDS011;26497;52.494;7.546;2023-06-14T07:42:27;1999.90;;;999.90;;
40787;SDS011;26497;52.494;7.546;2023-06-14T07:44:54;1999.90;;;999.90;;
40787;SDS011;26497;52.494;7.546;2023-06-14T07:47:21;1999.90;;;999.90;;
40787;SDS011;26497;52.494;7.546;2023-06-14T07:49:48;1999.90;;;999.90;;
40787;SDS011;26497;52.494;7.546;2023-06-14T07:52:15;1999.90;;;999.90;;
40787;SDS011;26497;52.494;7.546;2023-06-14T07:54:42;1999.90;;;999.90;;
40787;SDS011;26497;52.494;7.546;2023-06-14T07:57:10;1999.90;;;999.90;;
40787;SDS011;26497;52.494;7.546;2023-06-14T07:59:38;1999.90;;;999.90;;
40787;SDS011;26497;52.494;7.546;2023-06-14T08:02:05;1999.90;;;999.90;;
40787;SDS011;26497;52.494;7.546;2023-06-14T08:04:33;1999.90;;;999.90;;
40787;SDS011;26497;52.494;7.546;2023-06-14T08:07:00;1999.90;;;999.90;;
40787;SDS011;26497;52.494;7.546;2023-06-14T08:09:27;1999.90;;;999.90;;
40787;SDS011;26497;52.494;7.546;2023-06-14T08:11:55;1999.90;;;999.90;;
40787;SDS011;26497;52.494;7.546;2023-06-14T08:14:22;1999.90;;;999.90;;
40787;SDS011;26497;52.494;7.546;2023-06-14T08:16:50;1999.90;;;999.90;;
40787;SDS011;26497;52.494;7.546;2023-06-14T08:19:17;1999.90;;;999.90;;
40787;SDS011;26497;52.494;7.546;2023-06-14T08:21:45;1999.90;;;999.90;;
40787;SDS011;26497;52.494;7.546;2023-06-14T08:24:12;1999.90;;;999.90;;
40787;SDS011;26497;52.494;7.546;2023-06-14T08:26:39;1999.90;;;999.90;;
40787;SDS011;26497;52.494;7.546;2023-06-14T08:29:07;1999.90;;;999.90;;
40787;SDS011;26497;52.494;7.546;2023-06-14T08:31:34;1999.90;;;999.90;;
40787;SDS011;26497;52.494;7.546;2023-06-14T08:34:03;1999.90;;;999.90;;
40787;SDS011;26497;52.494;7.546;2023-06-14T08:36:31;1999.90;;;999.90;;
40787;SDS011;26497;52.494;7.546;2023-06-14T08:38:58;1999.90;;;999.90;;
40787;SDS011;26497;52.494;7.546;2023-06-14T08:41:25;1999.90;;;999.90;;
40787;SDS011;26497;52.494;7.546;2023-06-14T08:43:54;1999.90;;;999.90;;
40787;SDS011;26497;52.494;7.546;2023-06-14T08:46:22;1999.90;;;999.90;;
40787;SDS011;26497;52.494;7.546;2023-06-14T08:48:54;1999.90;;;999.90;;
40787;SDS011;26497;52.494;7.546;2023-06-14T08:51:24;1999.90;;;999.90;;
40787;SDS011;26497;52.494;7.546;2023-06-14T08:53:58;1999.90;;;999.90;;
40787;SDS011;26497;52.494;7.546;2023-06-14T08:56:27;1999.90;;;999.90;;
40787;SDS011;26497;52.494;7.546;2023-06-14T08:58:55;1999.90;;;999.90;;
40787;SDS011;26497;52.494;7.546;2023-06-14T09:01:25;1999.90;;;999.90;;
40787;SDS011;26497;52.494;7.546;2023-06-14T09:03:52;1999.90;;;999.90;;
40787;SDS011;26497;52.494;7.546;2023-06-14T09:06:23;1999.90;;;999.90;;
40787;SDS011;26497;52.494;7.546;2023-06-14T09:08:54;1999.90;;;999.90;;
40787;SDS011;26497;52.494;7.546;2023-06-14T09:11:26;1999.90;;;999.90;;
40787;SDS011;26497;52.494;7.546;2023-06-14T09:13:53;1999.90;;;999.90;;
40787;SDS011;26497;52.494;7.546;2023-06-14T09:16:20;1999.90;;;999.90;;
40787;SDS011;26497;52.494;7.546;2023-06-14T09:18:47;1999.90;;;999.90;;
40787;SDS011;26497;52.494;7.546;2023-06-14T09:21:16;1999.90;;;999.90;;
40787;SDS011;26497;52.494;7.546;2023-06-14T09:23:45;1999.90;;;999.90;;
40787;SDS011;26497;52.494;7.546;2023-06-14T09:26:14;1999.90;;;999.90;;
40787;SDS011;26497;52.494;7.546;2023-06-14T09:28:43;1999.90;;;999.90;;
40787;SDS011;26497;52.494;7.546;2023-06-14T09:31:11;1999.90;;;999.90;;
40787;SDS011;26497;52.494;7.546;2023-06-14T09:33:41;1999.90;;;999.90;;
40787;SDS011;26497;52.494;7.546;2023-06-14T09:36:13;1999.90;;;999.90;;
40787;SDS011;26497;52.494;7.546;2023-06-14T09:38:52;1999.90;;;999.90;;
40787;SDS011;26497;52.494;7.546;2023-06-14T09:41:20;1999.90;;;999.90;;
40787;SDS011;26497;52.494;7.546;2023-06-14T09:43:57;1999.90;;;999.90;;
40787;SDS011;26497;52.494;7.546;2023-06-14T09:46:26;1999.90;;;999.90;;
40787;SDS011;26497;52.494;7.546;2023-06-14T09:48:54;1999.90;;;999.90;;
40787;SDS011;26497;52.494;7.546;2023-06-14T09:51:21;1999.90;;;999.90;;
40787;SDS011;26497;52.494;7.546;2023-06-14T09:53:50;1999.90;;;999.90;;
40787;SDS011;26497;52.494;7.546;2023-06-14T09:56:20;1999.90;;;999.90;;
40787;SDS011;26497;52.494;7.546;2023-06-14T09:58:55;1999.90;;;999.90;;
40787;SDS011;26497;52.494;7.546;2023-06-14T10:01:25;1999.90;;;999.90;;
40787;SDS011;26497;52.494;7.546;2023-06-14T10:03:58;1999.90;;;999.90;;
40787;SDS011;26497;52.494;7.546;2023-06-14T10:06:31;1999.90;;;999.90;;
40787;SDS011;26497;52.494;7.546;2023-06-14T10:09:03;1999.90;;;999.90;;
40787;SDS011;26497;52.494;7.546;2023-06-14T10:11:35;1999.90;;;999.90;;
40787;SDS011;26497;52.494;7.546;2023-06-14T10:16:32;1999.90;;;999.90;;
40787;SDS011;26497;52.494;7.546;2023-06-14T10:19:07;1999.90;;;999.90;;
40787;SDS011;26497;52.494;7.546;2023-06-14T10:21:46;1999.90;;;999.90;;
40787;SDS011;26497;52.494;7.546;2023-06-14T10:24:26;1999.90;;;999.90;;
40787;SDS011;26497;52.494;7.546;2023-06-14T10:27:00;1999.90;;;999.90;;
40787;SDS011;26497;52.494;7.546;2023-06-14T10:29:28;1999.90;;;999.90;;
40787;SDS011;26497;52.494;7.546;2023-06-14T10:31:57;1999.90;;;999.90;;
40787;SDS011;26497;52.494;7.546;2023-06-14T10:34:26;1999.90;;;999.90;;
40787;SDS011;26497;52.494;7.546;2023-06-14T10:37:01;1999.90;;;999.90;;
40787;SDS011;26497;52.494;7.546;2023-06-14T10:39:31;1999.90;;;999.90;;
40787;SDS011;26497;52.494;7.546;2023-06-14T10:42:06;50.38;;;47.58;;
40787;SDS011;26497;52.494;7.546;2023-06-14T10:44:38;54.03;;;51.20;;
40787;SDS011;26497;52.494;7.546;2023-06-14T10:47:08;51.05;;;48.13;;
40787;SDS011;26497;52.494;7.546;2023-06-14T10:49:49;52.00;;;49.30;;
40787;SDS011;26497;52.494;7.546;2023-06-14T10:52:20;61.13;;;58.00;;
40787;SDS011;26497;52.494;7.546;2023-06-14T10:55:07;39.35;;;36.63;;
40787;SDS011;26497;52.494;7.546;2023-06-14T10:57:38;47.97;;;45.28;;
40787;SDS011;26497;52.494;7.546;2023-06-14T11:00:07;36.65;;;34.42;;
40787;SDS011;26497;52.494;7.546;2023-06-14T11:05:57;36.45;;;34.30;;
40787;SDS011;26497;52.494;7.546;2023-06-14T11:11:38;36.85;;;35.05;;
40787;SDS011;26497;52.494;7.546;2023-06-14T11:14:11;41.75;;;39.67;;
40787;SDS011;26497;52.494;7.546;2023-06-14T11:16:39;59.55;;;55.75;;
40787;SDS011;26497;52.494;7.546;2023-06-14T11:19:13;45.83;;;43.53;;
40787;SDS011;26497;52.494;7.546;2023-06-14T11:24:13;40.47;;;38.13;;
40787;SDS011;26497;52.494;7.546;2023-06-14T11:26:40;55.65;;;52.47;;
40787;SDS011;26497;52.494;7.546;2023-06-14T11:29:08;42.30;;;40.20;;
40787;SDS011;26497;52.494;7.546;2023-06-14T11:31:36;46.08;;;43.28;;
40787;SDS011;26497;52.494;7.546;2023-06-14T11:34:03;73.90;;;70.18;;
40787;SDS011;26497;52.494;7.546;2023-06-14T11:36:34;48.80;;;45.95;;
40787;SDS011;26497;52.494;7.546;2023-06-14T11:39:02;58.03;;;54.70;;
40787;SDS011;26497;52.494;7.546;2023-06-14T11:41:36;46.65;;;43.53;;
40787;SDS011;26497;52.494;7.546;2023-06-14T11:44:04;52.80;;;49.50;;
40787;SDS011;26497;52.494;7.546;2023-06-14T11:46:32;42.03;;;39.90;;
40787;SDS011;26497;52.494;7.546;2023-06-14T11:49:01;42.78;;;40.67;;
40787;SDS011;26497;52.494;7.546;2023-06-14T11:53:57;46.58;;;44.17;;
40787;SDS011;26497;52.494;7.546;2023-06-14T11:56:24;41.20;;;38.95;;
40787;SDS011;26497;52.494;7.546;2023-06-14T11:58:53;65.23;;;61.60;;
40787;SDS011;26497;52.494;7.546;2023-06-14T12:01:22;69.78;;;66.18;;
40787;SDS011;26497;52.494;7.546;2023-06-14T12:03:51;65.72;;;61.97;;
40787;SDS011;26497;52.494;7.546;2023-06-14T12:06:29;61.33;;;57.88;;
40787;SDS011;26497;52.494;7.546;2023-06-14T12:09:02;42.28;;;40.25;;
40787;SDS011;26497;52.494;7.546;2023-06-14T12:11:32;39.60;;;37.42;;
40787;SDS011;26497;52.494;7.546;2023-06-14T12:14:02;44.65;;;42.30;;
40787;SDS011;26497;52.494;7.546;2023-06-14T12:16:31;47.60;;;44.55;;
40787;SDS011;26497;52.494;7.546;2023-06-14T12:19:01;54.13;;;51.33;;
40787;SDS011;26497;52.494;7.546;2023-06-14T12:21:37;53.78;;;51.03;;
40787;SDS011;26497;52.494;7.546;2023-06-14T12:24:05;48.03;;;45.45;;
40787;SDS011;26497;52.494;7.546;2023-06-14T12:26:33;45.75;;;43.13;;
40787;SDS011;26497;52.494;7.546;2023-06-14T12:29:05;42.00;;;39.75;;
40787;SDS011;26497;52.494;7.546;2023-06-14T12:31:33;44.10;;;41.90;;
40787;SDS011;26497;52.494;7.546;2023-06-14T12:34:00;38.72;;;36.25;;
40787;SDS011;26497;52.494;7.546;2023-06-14T12:36:28;43.17;;;41.03;;
40787;SDS011;26497;52.494;7.546;2023-06-14T12:38:58;38.08;;;36.15;;
40787;SDS011;26497;52.494;7.546;2023-06-14T12:41:25;36.42;;;34.58;;
40787;SDS011;26497;52.494;7.546;2023-06-14T12:43:52;37.80;;;35.90;;
40787;SDS011;26497;52.494;7.546;2023-06-14T12:46:19;33.42;;;31.63;;
40787;SDS011;26497;52.494;7.546;2023-06-14T12:48:47;40.00;;;37.95;;
40787;SDS011;26497;52.494;7.546;2023-06-14T12:51:16;35.07;;;33.37;;
40787;SDS011;26497;52.494;7.546;2023-06-14T12:53:43;38.50;;;36.42;;
40787;SDS011;26497;52.494;7.546;2023-06-14T12:56:11;53.88;;;51.08;;
40787;SDS011;26497;52.494;7.546;2023-06-14T12:58:39;40.70;;;38.53;;
40787;SDS011;26497;52.494;7.546;2023-06-14T13:01:06;38.15;;;36.28;;
40787;SDS011;26497;52.494;7.546;2023-06-14T13:03:33;61.88;;;58.05;;
40787;SDS011;26497;52.494;7.546;2023-06-14T13:06:00;58.10;;;54.90;;
40787;SDS011;26497;52.494;7.546;2023-06-14T13:08:29;50.33;;;47.63;;
40787;SDS011;26497;52.494;7.546;2023-06-14T13:10:56;54.88;;;51.95;;
40787;SDS011;26497;52.494;7.546;2023-06-14T13:13:25;37.42;;;35.58;;
40787;SDS011;26497;52.494;7.546;2023-06-14T13:15:52;42.38;;;40.22;;
40787;SDS011;26497;52.494;7.546;2023-06-14T13:18:19;53.80;;;51.20;;
40787;SDS011;26497;52.494;7.546;2023-06-14T13:20:46;38.25;;;36.05;;
40787;SDS011;26497;52.494;7.546;2023-06-14T13:23:15;54.55;;;51.78;;
40787;SDS011;26497;52.494;7.546;2023-06-14T13:25:42;39.40;;;37.20;;
40787;SDS011;26497;52.494;7.546;2023-06-14T13:28:10;36.47;;;34.67;;
40787;SDS011;26497;52.494;7.546;2023-06-14T13:30:38;38.45;;;36.47;;
40787;SDS011;26497;52.494;7.546;2023-06-14T13:33:06;39.22;;;37.33;;
40787;SDS011;26497;52.494;7.546;2023-06-14T13:35:33;39.38;;;37.28;;
40787;SDS011;26497;52.494;7.546;2023-06-14T13:38:00;42.92;;;40.72;;
40787;SDS011;26497;52.494;7.546;2023-06-14T13:40:27;82.65;;;78.38;;
40787;SDS011;26497;52.494;7.546;2023-06-14T13:42:54;66.93;;;62.90;;
40787;SDS011;26497;52.494;7.546;2023-06-14T13:45:21;77.05;;;73.15;;
40787;SDS011;26497;52.494;7.546;2023-06-14T13:47:50;40.45;;;38.45;;
40787;SDS011;26497;52.494;7.546;2023-06-14T13:50:18;35.97;;;33.92;;
40787;SDS011;26497;52.494;7.546;2023-06-14T13:52:45;38.67;;;36.20;;
40787;SDS011;26497;52.494;7.546;2023-06-14T13:55:12;40.05;;;37.55;;
40787;SDS011;26497;52.494;7.546;2023-06-14T13:57:40;44.35;;;41.78;;
40787;SDS011;26497;52.494;7.546;2023-06-14T14:00:07;60.30;;;57.20;;
40787;SDS011;26497;52.494;7.546;2023-06-14T14:02:36;78.03;;;73.75;;
40787;SDS011;26497;52.494;7.546;2023-06-14T14:05:06;74.40;;;70.05;;
40787;SDS011;26497;52.494;7.546;2023-06-14T14:07:34;51.10;;;48.25;;
40787;SDS011;26497;52.494;7.546;2023-06-14T14:10:03;43.33;;;41.03;;
40787;SDS011;26497;52.494;7.546;2023-06-14T14:12:31;46.30;;;43.50;;
40787;SDS011;26497;52.494;7.546;2023-06-14T14:14:58;1999.90;;;999.90;;
40787;SDS011;26497;52.494;7.546;2023-06-14T14:17:26;1999.90;;;999.90;;